createdAt,value
2018-08-28T00:01:11.306Z,31.74
2018-08-28T00:03:41.866Z,31.34
2018-08-28T00:06:12.541Z,31.75
2018-08-28T00:08:43.161Z,31.16
2018-08-28T00:11:14.010Z,31.56
2018-08-28T00:13:44.568Z,31.28
2018-08-28T00:16:15.244Z,31.41
2018-08-28T00:18:45.717Z,31.90
2018-08-28T00:21:16.636Z,31.55
2018-08-28T00:23:47.308Z,31.49
2018-08-28T00:26:18.512Z,31.65
2018-08-28T00:28:49.078Z,31.85
2018-08-28T00:31:19.997Z,31.91
2018-08-28T00:33:50.441Z,31.65
2018-08-28T00:36:21.263Z,31.98
2018-08-28T00:38:51.956Z,31.39
2018-08-28T00:41:22.556Z,31.61
2018-08-28T00:43:52.996Z,31.72
2018-08-28T00:46:23.960Z,31.85
2018-08-28T00:48:54.595Z,31.88
2018-08-28T00:51:25.455Z,31.83
2018-08-28T00:53:56.049Z,32.34
2018-08-28T00:56:26.788Z,32.57
2018-08-28T00:58:57.499Z,32.41
2018-08-28T01:01:28.076Z,31.94
2018-08-28T01:03:58.502Z,32.28
2018-08-28T01:06:29.264Z,31.82
2018-08-28T01:08:59.865Z,31.42
2018-08-28T01:11:30.607Z,31.50
2018-08-28T01:14:01.190Z,31.72
2018-08-28T01:16:31.896Z,31.36
2018-08-28T01:19:02.672Z,31.12
2018-08-28T01:21:33.441Z,31.41
2018-08-28T01:24:04.041Z,31.24
2018-08-28T01:26:35.371Z,31.62
2018-08-28T01:29:05.973Z,31.40
2018-08-28T01:31:36.937Z,31.63
2018-08-28T01:34:07.572Z,31.54
2018-08-28T01:36:38.232Z,30.98
2018-08-28T01:39:09.770Z,30.78
2018-08-28T01:41:40.580Z,31.01
2018-08-28T01:44:11.267Z,31.08
2018-08-28T01:46:42.153Z,30.70
2018-08-28T01:49:12.753Z,30.49
2018-08-28T01:51:43.648Z,30.51
2018-08-28T01:54:14.272Z,30.62
2018-08-28T01:56:44.903Z,30.38
2018-08-28T01:59:15.636Z,30.74
2018-08-28T02:01:46.522Z,30.35
2018-08-28T02:04:17.151Z,29.66
2018-08-28T02:06:48.076Z,29.95
2018-08-28T02:09:18.725Z,29.82
2018-08-28T02:11:49.313Z,29.88
2018-08-28T02:14:19.913Z,29.90
2018-08-28T02:16:50.780Z,30.00
2018-08-28T02:19:21.457Z,29.66
2018-08-28T02:21:52.322Z,29.77
2018-08-28T02:24:22.752Z,29.77
2018-08-28T02:26:53.818Z,29.69
2018-08-28T02:29:24.361Z,29.70
2018-08-28T02:31:55.049Z,29.47
2018-08-28T02:34:25.632Z,29.53
2018-08-28T02:36:56.445Z,29.72
2018-08-28T02:39:26.837Z,29.62
2018-08-28T02:41:57.685Z,29.28
2018-08-28T02:44:28.337Z,29.49
2018-08-28T02:46:59.157Z,29.29
2018-08-28T02:49:29.970Z,29.90
2018-08-28T02:52:00.633Z,29.48
2018-08-28T02:54:31.017Z,29.74
2018-08-28T02:57:01.833Z,29.70
2018-08-28T02:59:32.374Z,29.56
2018-08-28T03:02:03.087Z,29.77
2018-08-28T03:04:33.796Z,29.82
2018-08-28T03:07:04.664Z,29.97
2018-08-28T03:09:35.224Z,29.95
2018-08-28T03:12:06.226Z,29.82
2018-08-28T03:14:36.990Z,29.54
2018-08-28T03:17:07.863Z,29.29
2018-08-28T03:19:38.444Z,29.23
2018-08-28T03:22:09.129Z,29.58
2018-08-28T03:24:39.704Z,29.59
2018-08-28T03:27:10.501Z,29.47
2018-08-28T03:29:41.140Z,29.28
2018-08-28T03:32:11.939Z,29.03
2018-08-28T03:34:42.605Z,29.55
2018-08-28T03:37:13.217Z,29.96
2018-08-28T03:39:43.859Z,29.89
2018-08-28T03:42:14.611Z,30.03
2018-08-28T03:44:45.311Z,29.92
2018-08-28T03:47:16.009Z,29.75
2018-08-28T03:49:46.693Z,29.52
2018-08-28T03:52:17.430Z,29.70
2018-08-28T03:54:48.245Z,29.47
2018-08-28T03:57:18.929Z,29.45
2018-08-28T03:59:49.572Z,29.16
2018-08-28T04:02:20.633Z,29.48
2018-08-28T04:04:51.122Z,29.27
2018-08-28T04:07:22.072Z,29.43
2018-08-28T04:09:52.825Z,29.30
2018-08-28T04:12:23.529Z,29.61
2018-08-28T04:14:54.099Z,29.57
2018-08-28T04:17:24.879Z,29.00
2018-08-28T04:19:55.604Z,29.30
2018-08-28T04:22:26.392Z,29.70
2018-08-28T04:24:57.056Z,29.45
2018-08-28T04:27:27.757Z,29.55
2018-08-28T04:29:58.377Z,30.04
2018-08-28T04:32:29.429Z,30.14
2018-08-28T04:35:00.101Z,29.82
2018-08-28T04:37:30.801Z,29.10
2018-08-28T04:40:01.705Z,29.05
2018-08-28T04:42:32.788Z,29.69
2018-08-28T04:45:03.381Z,29.64
2018-08-28T04:47:34.320Z,29.42
2018-08-28T04:50:04.889Z,29.53
2018-08-28T04:52:35.794Z,29.36
2018-08-28T04:55:06.560Z,29.97
2018-08-28T04:57:37.424Z,29.97
2018-08-28T05:00:09.222Z,29.59
2018-08-28T05:02:39.897Z,29.71
2018-08-28T05:05:10.864Z,29.74
2018-08-28T05:07:41.501Z,29.31
2018-08-28T05:10:12.218Z,29.63
2018-08-28T05:12:42.959Z,30.36
2018-08-28T05:15:13.525Z,30.26
2018-08-28T05:17:44.338Z,30.06
2018-08-28T05:20:15.050Z,30.72
2018-08-28T05:22:45.902Z,30.48
2018-08-28T05:25:16.625Z,30.51
2018-08-28T05:27:47.492Z,30.39
2018-08-28T05:30:18.185Z,29.98
2018-08-28T05:32:48.873Z,30.59
2018-08-28T05:35:19.489Z,30.87
2018-08-28T05:37:50.354Z,30.89
2018-08-28T05:40:21.025Z,30.86
2018-08-28T05:42:51.529Z,31.85
2018-08-28T05:45:22.173Z,31.30
2018-08-28T05:47:53.041Z,30.59
2018-08-28T05:50:23.854Z,31.29
2018-08-28T05:52:54.959Z,30.93
2018-08-28T05:55:25.626Z,31.85
2018-08-28T05:57:56.593Z,31.25
2018-08-28T06:00:27.370Z,32.37
2018-08-28T06:02:58.209Z,31.88
2018-08-28T06:05:28.838Z,31.49
2018-08-28T06:07:59.651Z,31.69
2018-08-28T06:10:30.169Z,32.33
2018-08-28T06:13:01.111Z,32.07
2018-08-28T06:15:31.737Z,32.62
2018-08-28T06:18:02.565Z,33.00
2018-08-28T06:20:33.285Z,31.95
2018-08-28T06:23:03.929Z,32.54
2018-08-28T06:25:34.374Z,32.64
2018-08-28T06:28:05.309Z,33.65
2018-08-28T06:30:35.987Z,33.26
2018-08-28T06:33:06.865Z,33.23
2018-08-28T06:35:37.621Z,33.09
2018-08-28T06:38:08.341Z,34.00
2018-08-28T06:40:38.927Z,33.84
2018-08-28T06:43:10.678Z,34.56
2018-08-28T06:45:41.188Z,34.79
2018-08-28T06:48:12.010Z,34.18
2018-08-28T06:50:42.602Z,33.41
2018-08-28T06:53:13.302Z,32.70
2018-08-28T06:55:43.892Z,33.75
2018-08-28T06:58:14.919Z,33.42
2018-08-28T07:00:45.484Z,35.34
2018-08-28T07:03:16.344Z,34.29
2018-08-28T07:05:46.864Z,34.52
2018-08-28T07:08:17.689Z,34.17
2018-08-28T07:10:48.429Z,34.50
2018-08-28T07:13:19.236Z,34.00
2018-08-28T07:15:49.918Z,34.98
2018-08-28T07:18:20.623Z,35.04
2018-08-28T07:20:51.099Z,35.66
2018-08-28T07:23:21.901Z,35.18
2018-08-28T07:25:52.551Z,35.58
2018-08-28T07:28:23.542Z,35.77
2018-08-28T07:30:54.290Z,35.81
2018-08-28T07:33:25.122Z,35.71
2018-08-28T07:35:55.525Z,35.93
2018-08-28T07:38:26.310Z,35.39
2018-08-28T07:40:57.002Z,35.64
2018-08-28T07:43:28.071Z,35.39
2018-08-28T07:45:58.714Z,35.55
2018-08-28T07:48:30.491Z,35.22
2018-08-28T07:51:01.317Z,36.67
2018-08-28T07:53:32.193Z,36.27
2018-08-28T07:56:02.882Z,35.95
2018-08-28T07:58:33.642Z,34.58
2018-08-28T08:01:04.266Z,34.88
2018-08-28T08:03:35.121Z,35.76
2018-08-28T08:06:05.861Z,37.48
2018-08-28T08:08:36.657Z,37.69
2018-08-28T08:11:07.389Z,37.23
2018-08-28T08:13:38.443Z,36.99
2018-08-28T08:16:09.021Z,37.01
2018-08-28T08:18:39.833Z,37.60
2018-08-28T08:21:10.585Z,37.93
2018-08-28T08:23:41.627Z,37.00
2018-08-28T08:26:12.357Z,37.29
2018-08-28T08:28:43.317Z,37.95
2018-08-28T08:31:13.759Z,38.71
2018-08-28T08:33:44.520Z,38.29
2018-08-28T08:36:15.069Z,37.98
2018-08-28T08:38:45.759Z,37.33
2018-08-28T08:41:16.469Z,38.06
2018-08-28T08:43:47.373Z,38.01
2018-08-28T08:46:17.908Z,38.40
2018-08-28T08:48:48.784Z,39.26
2018-08-28T08:51:19.530Z,38.70
2018-08-28T08:53:50.689Z,38.12
2018-08-28T08:56:21.297Z,38.71
2018-08-28T08:58:52.194Z,38.17
2018-08-28T09:01:22.940Z,38.55
2018-08-28T09:03:53.679Z,39.13
2018-08-28T09:06:24.284Z,39.05
2018-08-28T09:08:55.097Z,38.80
2018-08-28T09:11:25.846Z,39.23
2018-08-28T09:13:56.697Z,38.69
2018-08-28T09:16:27.325Z,37.76
2018-08-28T09:18:58.161Z,39.80
2018-08-28T09:21:30.748Z,39.55
2018-08-28T09:24:01.738Z,39.59
2018-08-28T09:26:32.301Z,39.16
2018-08-28T09:29:03.281Z,39.41
2018-08-28T09:31:33.940Z,39.56
2018-08-28T09:34:04.593Z,40.08
2018-08-28T09:36:35.253Z,38.93
2018-08-28T09:39:07.305Z,39.41
2018-08-28T09:41:38.112Z,40.14
2018-08-28T09:44:08.907Z,39.91
2018-08-28T09:46:39.572Z,40.24
2018-08-28T09:49:10.399Z,40.02
2018-08-28T09:51:41.182Z,40.01
2018-08-28T09:54:11.943Z,39.18
2018-08-28T09:56:42.529Z,39.85
2018-08-28T09:59:13.356Z,41.08
2018-08-28T10:01:45.586Z,40.38
2018-08-28T10:04:17.254Z,39.65
2018-08-28T10:06:47.928Z,39.79
2018-08-28T10:09:19.677Z,39.62
2018-08-28T10:11:50.242Z,40.45
2018-08-28T10:14:20.974Z,40.65
2018-08-28T10:16:51.509Z,41.15
2018-08-28T10:19:22.202Z,40.54
2018-08-28T10:21:52.901Z,40.39
2018-08-28T10:24:23.937Z,41.23
2018-08-28T10:26:54.582Z,41.44
2018-08-28T10:29:25.517Z,40.93
2018-08-28T10:31:56.109Z,40.78
2018-08-28T10:34:26.889Z,42.12
2018-08-28T10:36:57.468Z,41.05
2018-08-28T10:39:28.251Z,41.95
2018-08-28T10:41:58.900Z,41.65
2018-08-28T10:44:29.821Z,40.88
2018-08-28T10:47:00.548Z,40.90
2018-08-28T10:49:31.288Z,40.39
2018-08-28T10:52:02.045Z,41.19
2018-08-28T10:54:32.722Z,41.74
2018-08-28T10:57:03.312Z,41.75
2018-08-28T10:59:34.289Z,42.02
2018-08-28T11:02:04.694Z,43.12
2018-08-28T11:04:36.002Z,42.40
2018-08-28T11:07:06.592Z,41.10
2018-08-28T11:09:37.461Z,42.19
2018-08-28T11:12:08.133Z,42.78
2018-08-28T11:14:41.264Z,42.79
2018-08-28T11:17:12.115Z,41.78
2018-08-28T11:19:43.069Z,42.67
2018-08-28T11:22:13.777Z,41.06
2018-08-28T11:24:44.625Z,42.43
2018-08-28T11:27:15.113Z,42.72
2018-08-28T11:29:46.096Z,42.18
2018-08-28T11:32:16.765Z,42.39
2018-08-28T11:34:47.493Z,43.94
2018-08-28T11:37:18.131Z,42.04
2018-08-28T11:39:49.134Z,43.08
2018-08-28T11:42:19.782Z,42.87
2018-08-28T11:44:50.633Z,43.84
2018-08-28T11:47:21.378Z,42.87
2018-08-28T11:49:52.267Z,42.42
2018-08-28T11:52:22.997Z,43.37
2018-08-28T11:54:53.825Z,42.89
2018-08-28T11:57:24.316Z,43.49
2018-08-28T11:59:54.996Z,44.63
2018-08-28T12:02:25.600Z,43.13
2018-08-28T12:04:56.410Z,42.47
2018-08-28T12:07:27.172Z,42.61
2018-08-28T12:09:58.085Z,41.56
2018-08-28T12:12:28.688Z,41.18
2018-08-28T12:14:59.552Z,41.03
2018-08-28T12:17:30.084Z,40.56
2018-08-28T12:20:00.837Z,40.77
2018-08-28T12:22:31.525Z,40.33
2018-08-28T12:25:02.312Z,41.43
2018-08-28T12:27:32.908Z,41.58
2018-08-28T12:30:03.911Z,42.79
2018-08-28T12:32:34.565Z,41.05
2018-08-28T12:35:05.636Z,41.24
2018-08-28T12:37:36.070Z,40.44
2018-08-28T12:40:07.082Z,41.02
2018-08-28T12:42:37.702Z,41.68
2018-08-28T12:45:08.997Z,41.06
2018-08-28T12:47:40.057Z,41.99
2018-08-28T12:50:11.734Z,41.92
2018-08-28T12:52:42.385Z,41.14
2018-08-28T12:55:13.205Z,40.26
2018-08-28T12:57:43.973Z,39.94
2018-08-28T13:00:15.065Z,40.53
2018-08-28T13:02:45.621Z,40.72
2018-08-28T13:05:16.517Z,42.54
2018-08-28T13:07:47.143Z,41.87
2018-08-28T13:10:18.003Z,43.17
2018-08-28T13:12:48.664Z,41.64
2018-08-28T13:15:19.480Z,42.77
2018-08-28T13:17:50.177Z,42.67
2018-08-28T13:20:21.149Z,42.78
2018-08-28T13:22:51.768Z,43.49
2018-08-28T13:25:22.835Z,44.29
2018-08-28T13:27:53.396Z,43.72
2018-08-28T13:30:24.309Z,43.29
2018-08-28T13:32:54.657Z,42.37
2018-08-28T13:35:25.321Z,43.10
2018-08-28T13:37:55.933Z,42.16
2018-08-28T13:40:26.713Z,41.33
2018-08-28T13:42:57.309Z,41.98
2018-08-28T13:45:28.315Z,42.21
2018-08-28T13:47:58.995Z,41.66
2018-08-28T13:50:29.997Z,41.55
2018-08-28T13:53:00.584Z,42.49
2018-08-28T13:55:31.481Z,42.30
2018-08-28T13:58:02.129Z,41.93
2018-08-28T14:00:32.991Z,41.91
2018-08-28T14:03:03.693Z,41.58
2018-08-28T14:05:34.565Z,41.54
2018-08-28T14:08:05.209Z,41.55
2018-08-28T14:10:36.016Z,42.07
2018-08-28T14:13:06.676Z,41.64
2018-08-28T14:15:37.306Z,41.56
2018-08-28T14:18:08.149Z,41.06
2018-08-28T14:20:38.922Z,41.59
2018-08-28T14:23:09.468Z,42.32
2018-08-28T14:25:40.425Z,42.30
2018-08-28T14:28:11.139Z,42.46
2018-08-28T14:30:42.242Z,41.64
2018-08-28T14:33:13.334Z,42.32
2018-08-28T14:35:44.555Z,42.29
2018-08-28T14:38:15.137Z,43.62
2018-08-28T14:40:46.111Z,43.20
2018-08-28T14:43:16.565Z,43.30
2018-08-28T14:45:47.412Z,43.30
2018-08-28T14:48:18.126Z,44.22
2018-08-28T14:50:48.862Z,44.49
2018-08-28T14:53:19.590Z,44.17
2018-08-28T14:55:50.325Z,44.18
2018-08-28T14:58:20.898Z,45.19
2018-08-28T15:00:51.897Z,44.86
2018-08-28T15:03:22.524Z,43.61
2018-08-28T15:05:53.421Z,44.56
2018-08-28T15:08:24.133Z,44.19
2018-08-28T15:10:54.749Z,43.09
2018-08-28T15:13:25.409Z,43.84
2018-08-28T15:15:56.316Z,43.22
2018-08-28T15:18:27.133Z,43.68
2018-08-28T15:20:58.074Z,42.99
2018-08-28T15:23:28.698Z,42.29
2018-08-28T15:25:59.853Z,43.08
2018-08-28T15:28:30.585Z,42.47
2018-08-28T15:31:01.602Z,42.23
2018-08-28T15:33:32.324Z,42.93
2018-08-28T15:36:03.123Z,42.92
2018-08-28T15:38:33.712Z,42.21
2018-08-28T15:41:04.444Z,42.44
2018-08-28T15:43:35.037Z,42.33
2018-08-28T15:46:06.005Z,41.59
2018-08-28T15:48:36.649Z,41.54
2018-08-28T15:51:07.603Z,41.19
2018-08-28T15:53:38.173Z,41.13
2018-08-28T15:56:09.877Z,40.30
2018-08-28T15:58:40.648Z,40.37
2018-08-28T16:01:11.561Z,40.30
2018-08-28T16:03:42.209Z,39.77
2018-08-28T16:06:13.054Z,38.98
2018-08-28T16:08:43.697Z,38.65
2018-08-28T16:11:14.730Z,38.99
2018-08-28T16:13:45.479Z,38.90
2018-08-28T16:16:16.238Z,39.21
2018-08-28T16:18:46.832Z,39.17
2018-08-28T16:21:17.649Z,38.73
2018-08-28T16:23:49.652Z,39.09
2018-08-28T16:26:20.117Z,38.51
2018-08-28T16:28:50.837Z,38.14
2018-08-28T16:31:21.596Z,38.36
2018-08-28T16:33:52.077Z,37.82
2018-08-28T16:36:22.993Z,38.21
2018-08-28T16:38:53.683Z,38.31
2018-08-28T16:41:24.473Z,38.04
2018-08-28T16:43:55.137Z,37.68
2018-08-28T16:46:25.914Z,37.49
2018-08-28T16:48:56.348Z,37.64
2018-08-28T16:51:27.193Z,37.64
2018-08-28T16:53:57.824Z,37.62
2018-08-28T16:56:29.064Z,37.16
2018-08-28T16:59:00.699Z,36.82
2018-08-28T17:01:33.045Z,37.46
2018-08-28T17:04:05.437Z,37.04
2018-08-28T17:06:36.998Z,37.51
2018-08-28T17:09:08.652Z,37.02
2018-08-28T17:11:39.426Z,36.97
2018-08-28T17:14:10.244Z,37.16
2018-08-28T17:16:41.425Z,37.11
2018-08-28T17:19:12.029Z,36.99
2018-08-28T17:21:43.007Z,36.95
2018-08-28T17:24:13.726Z,36.99
2018-08-28T17:26:44.553Z,36.55
2018-08-28T17:29:15.297Z,36.87
2018-08-28T17:31:46.578Z,36.87
2018-08-28T17:34:17.187Z,36.81
2018-08-28T17:36:47.848Z,35.68
2018-08-28T17:39:18.320Z,35.82
2018-08-28T17:41:49.144Z,36.47
2018-08-28T17:44:19.592Z,36.22
2018-08-28T17:46:50.394Z,36.18
2018-08-28T17:49:21.338Z,35.94
2018-08-28T17:51:52.580Z,36.17
2018-08-28T17:54:23.105Z,36.00
2018-08-28T17:56:53.941Z,35.99
2018-08-28T17:59:24.679Z,36.20
2018-08-28T18:01:55.459Z,36.33
2018-08-28T18:04:26.072Z,36.22
2018-08-28T18:06:56.980Z,36.31
2018-08-28T18:09:27.757Z,36.11
2018-08-28T18:11:58.807Z,35.63
2018-08-28T18:14:29.906Z,35.46
2018-08-28T18:17:00.790Z,35.73
2018-08-28T18:19:31.396Z,35.67
2018-08-28T18:22:02.128Z,35.78
2018-08-28T18:24:32.721Z,35.75
2018-08-28T18:27:03.584Z,35.76
2018-08-28T18:29:34.196Z,34.83
2018-08-28T18:32:04.945Z,35.05
2018-08-28T18:34:35.853Z,35.56
2018-08-28T18:37:06.993Z,35.03
2018-08-28T18:39:37.696Z,35.65
2018-08-28T18:42:08.588Z,34.13
2018-08-28T18:44:39.321Z,34.30
2018-08-28T18:47:10.954Z,34.53
2018-08-28T18:49:41.641Z,33.39
2018-08-28T18:52:12.426Z,33.51
2018-08-28T18:54:43.006Z,33.65
2018-08-28T18:57:13.897Z,34.02
2018-08-28T18:59:44.549Z,34.02
2018-08-28T19:02:15.418Z,34.06
2018-08-28T19:04:46.050Z,34.58
2018-08-28T19:07:16.841Z,34.76
2018-08-28T19:09:47.507Z,34.58
2018-08-28T19:12:18.165Z,34.52
2018-08-28T19:14:48.749Z,34.30
2018-08-28T19:17:19.451Z,34.68
2018-08-28T19:19:50.076Z,34.78
2018-08-28T19:22:20.809Z,34.51
2018-08-28T19:24:51.426Z,33.68
2018-08-28T19:27:22.440Z,33.49
2018-08-28T19:29:53.165Z,34.22
2018-08-28T19:32:24.281Z,33.79
2018-08-28T19:34:54.844Z,33.58
2018-08-28T19:37:25.714Z,34.17
2018-08-28T19:39:56.370Z,33.74
2018-08-28T19:42:27.286Z,33.51
2018-08-28T19:44:57.894Z,33.92
2018-08-28T19:47:28.728Z,34.67
2018-08-28T19:49:59.433Z,34.47
2018-08-28T19:52:30.377Z,33.40
2018-08-28T19:55:00.996Z,33.75
2018-08-28T19:57:31.885Z,33.69
2018-08-28T20:00:02.593Z,33.51
2018-08-28T20:02:33.512Z,33.72
2018-08-28T20:05:04.237Z,33.55
2018-08-28T20:07:34.882Z,34.24
2018-08-28T20:10:05.375Z,34.39
2018-08-28T20:12:36.152Z,34.39
2018-08-28T20:15:06.941Z,34.28
2018-08-28T20:17:37.705Z,33.73
2018-08-28T20:20:08.312Z,32.87
2018-08-28T20:22:39.363Z,33.40
2018-08-28T20:25:09.968Z,33.90
2018-08-28T20:27:40.713Z,34.10
2018-08-28T20:30:11.506Z,34.25
2018-08-28T20:32:42.302Z,33.04
2018-08-28T20:35:12.880Z,33.14
2018-08-28T20:37:43.864Z,33.06
2018-08-28T20:40:14.446Z,32.65
2018-08-28T20:42:45.097Z,32.96
2018-08-28T20:45:15.767Z,32.63
2018-08-28T20:47:46.525Z,32.85
2018-08-28T20:50:17.075Z,32.70
2018-08-28T20:52:48.092Z,33.24
2018-08-28T20:55:18.533Z,33.04
2018-08-28T20:57:49.438Z,32.75
2018-08-28T21:00:20.301Z,32.73
2018-08-28T21:02:51.282Z,32.33
2018-08-28T21:05:26.781Z,32.57
2018-08-28T21:08:00.854Z,33.03
2018-08-28T21:10:31.893Z,32.54
2018-08-28T21:13:02.878Z,32.20
2018-08-28T21:15:33.480Z,32.57
2018-08-28T21:18:03.973Z,32.25
2018-08-28T21:20:34.642Z,32.29
2018-08-28T21:23:05.893Z,32.81
2018-08-28T21:25:36.420Z,32.59
2018-08-28T21:28:07.144Z,32.60
2018-08-28T21:30:37.805Z,32.82
2018-08-28T21:33:09.025Z,33.09
2018-08-28T21:35:39.726Z,33.05
2018-08-28T21:38:10.544Z,33.15
2018-08-28T21:40:41.108Z,33.39
2018-08-28T21:43:12.090Z,33.29
2018-08-28T21:45:42.642Z,33.30
2018-08-28T21:48:13.602Z,33.19
2018-08-28T21:50:44.097Z,33.07
2018-08-28T21:53:14.973Z,33.43
2018-08-28T21:55:45.624Z,33.24
2018-08-28T21:58:16.560Z,33.70
2018-08-28T22:00:51.137Z,33.65
2018-08-28T22:03:21.872Z,33.37
2018-08-28T22:05:52.421Z,33.15
2018-08-28T22:08:23.120Z,33.59
2018-08-28T22:10:53.681Z,33.88
2018-08-28T22:13:24.610Z,33.70
2018-08-28T22:15:55.217Z,33.17
2018-08-28T22:18:25.932Z,33.42
2018-08-28T22:20:57.152Z,33.08
2018-08-28T22:23:27.993Z,31.52
2018-08-28T22:25:58.429Z,32.00
2018-08-28T22:28:29.168Z,32.49
2018-08-28T22:30:59.890Z,32.23
2018-08-28T22:33:30.545Z,32.39
2018-08-28T22:36:01.181Z,31.85
2018-08-28T22:38:31.810Z,31.85
2018-08-28T22:41:02.408Z,32.13
2018-08-28T22:43:33.449Z,32.00
2018-08-28T22:46:04.185Z,31.71
2018-08-28T22:48:35.021Z,31.87
2018-08-28T22:51:05.747Z,31.78
2018-08-28T22:53:36.380Z,32.03
2018-08-28T22:56:07.115Z,31.66
2018-08-28T22:58:38.321Z,32.01
2018-08-28T23:01:08.896Z,31.80
2018-08-28T23:03:39.997Z,31.29
2018-08-28T23:06:10.773Z,31.27
2018-08-28T23:08:41.473Z,31.88
2018-08-28T23:11:12.024Z,31.22
2018-08-28T23:13:42.564Z,31.24
2018-08-28T23:16:13.341Z,31.51
2018-08-28T23:18:44.205Z,31.30
2018-08-28T23:21:14.732Z,31.25
2018-08-28T23:23:45.429Z,31.91
2018-08-28T23:26:16.073Z,30.95
2018-08-28T23:28:46.774Z,31.29
2018-08-28T23:31:17.474Z,30.77
2018-08-28T23:33:48.064Z,30.62
2018-08-28T23:36:18.709Z,30.73
2018-08-28T23:38:49.622Z,30.61
2018-08-28T23:41:20.372Z,30.92
2018-08-28T23:43:51.212Z,30.48
2018-08-28T23:46:21.888Z,30.03
2018-08-28T23:48:52.981Z,29.73
2018-08-28T23:51:23.356Z,29.70
2018-08-28T23:53:54.048Z,30.50
2018-08-28T23:56:24.669Z,29.44
2018-08-28T23:58:55.317Z,30.05
